createdAt,value
2024-02-14T00:00:36.449Z,650.00
2024-02-14T00:01:36.429Z,649.00
2024-02-14T00:02:36.479Z,651.00
2024-02-14T00:03:36.574Z,652.00
2024-02-14T00:04:36.490Z,649.00
2024-02-14T00:05:36.524Z,648.00
2024-02-14T00:06:36.516Z,649.00
2024-02-14T00:07:36.489Z,650.00
2024-02-14T00:08:36.484Z,651.00
2024-02-14T00:09:36.463Z,651.00
2024-02-14T00:10:36.484Z,648.00
2024-02-14T00:11:36.498Z,648.00
2024-02-14T00:12:36.487Z,648.00
2024-02-14T00:13:36.501Z,646.00
2024-02-14T00:14:36.526Z,647.00
2024-02-14T00:15:36.553Z,649.00
2024-02-14T00:16:36.517Z,649.00
2024-02-14T00:17:36.703Z,646.00
2024-02-14T00:18:36.826Z,645.00
2024-02-14T00:19:36.551Z,647.00
2024-02-14T00:20:36.631Z,649.00
2024-02-14T00:21:36.573Z,648.00
2024-02-14T00:22:36.546Z,645.00
2024-02-14T00:23:36.588Z,649.00
2024-02-14T00:24:36.628Z,650.00
2024-02-14T00:25:36.620Z,648.00
2024-02-14T00:26:36.630Z,646.00
2024-02-14T00:27:36.628Z,647.00
2024-02-14T00:28:36.755Z,648.00
2024-02-14T00:29:36.656Z,643.00
2024-02-14T00:30:36.668Z,640.00
2024-02-14T00:31:36.684Z,642.00
2024-02-14T00:32:36.890Z,643.00
2024-02-14T00:33:36.844Z,648.00
2024-02-14T00:34:36.847Z,648.00
2024-02-14T00:35:36.757Z,648.00
2024-02-14T00:36:36.754Z,647.00
2024-02-14T00:37:36.780Z,645.00
2024-02-14T00:38:36.828Z,647.00
2024-02-14T00:39:36.778Z,648.00
2024-02-14T00:40:36.824Z,648.00
2024-02-14T00:41:36.856Z,646.00
2024-02-14T00:42:36.859Z,645.00
2024-02-14T00:43:36.885Z,645.00
2024-02-14T00:44:36.908Z,643.00
2024-02-14T00:45:36.899Z,646.00
2024-02-14T00:46:36.913Z,644.00
2024-02-14T00:47:37.117Z,645.00
2024-02-14T00:48:37.127Z,644.00
2024-02-14T00:49:37.030Z,648.00
2024-02-14T00:50:36.993Z,650.00
2024-02-14T00:51:36.966Z,649.00
2024-02-14T00:52:36.986Z,652.00
2024-02-14T00:53:37.061Z,650.00
2024-02-14T00:54:37.014Z,651.00
2024-02-14T00:55:37.067Z,651.00
2024-02-14T00:56:37.079Z,653.00
2024-02-14T00:57:37.064Z,655.00
2024-02-14T00:58:37.088Z,653.00
2024-02-14T00:59:37.150Z,649.00
2024-02-14T01:00:37.183Z,650.00
2024-02-14T01:01:37.098Z,646.00
2024-02-14T01:02:37.311Z,644.00
2024-02-14T01:03:37.189Z,645.00
2024-02-14T01:04:37.198Z,648.00
2024-02-14T01:05:37.309Z,648.00
2024-02-14T01:06:37.315Z,645.00
2024-02-14T01:07:37.168Z,650.00
2024-02-14T01:08:37.294Z,649.00
2024-02-14T01:09:37.271Z,650.00
2024-02-14T01:10:37.294Z,651.00
2024-02-14T01:11:37.305Z,653.00
2024-02-14T01:12:37.313Z,654.00
2024-02-14T01:13:37.329Z,652.00
2024-02-14T01:14:37.402Z,649.00
2024-02-14T01:15:37.367Z,647.00
2024-02-14T01:16:37.433Z,646.00
2024-02-14T01:17:37.536Z,648.00
2024-02-14T01:18:37.594Z,650.00
2024-02-14T01:19:37.518Z,649.00
2024-02-14T01:20:37.559Z,648.00
2024-02-14T01:21:37.523Z,651.00
2024-02-14T01:22:37.532Z,649.00
2024-02-14T01:23:37.615Z,652.00
2024-02-14T01:24:37.590Z,650.00
2024-02-14T01:25:37.649Z,649.00
2024-02-14T01:26:37.755Z,647.00
2024-02-14T01:27:37.639Z,647.00
2024-02-14T01:28:37.662Z,645.00
2024-02-14T01:29:37.735Z,645.00
2024-02-14T01:30:37.749Z,647.00
2024-02-14T01:31:37.753Z,652.00
2024-02-14T01:32:37.790Z,655.00
2024-02-14T01:33:37.894Z,659.00
2024-02-14T01:34:37.882Z,660.00
2024-02-14T01:35:37.881Z,659.00
2024-02-14T01:36:37.852Z,659.00
2024-02-14T01:37:37.916Z,657.00
2024-02-14T01:38:37.989Z,655.00
2024-02-14T01:39:37.918Z,659.00
2024-02-14T01:40:37.975Z,654.00
2024-02-14T01:41:37.972Z,654.00
2024-02-14T01:42:37.998Z,652.00
2024-02-14T01:43:37.996Z,650.00
2024-02-14T01:44:38.155Z,650.00
2024-02-14T01:45:38.078Z,649.00
2024-02-14T01:46:38.102Z,657.00
2024-02-14T01:47:38.176Z,659.00
2024-02-14T01:48:38.310Z,660.00
2024-02-14T01:49:38.189Z,658.00
2024-02-14T01:50:38.333Z,657.00
2024-02-14T01:51:38.278Z,660.00
2024-02-14T01:52:38.341Z,658.00
2024-02-14T01:53:38.435Z,657.00
2024-02-14T01:54:38.389Z,655.00
2024-02-14T01:55:38.412Z,654.00
2024-02-14T01:56:38.400Z,656.00
2024-02-14T01:57:38.424Z,656.00
2024-02-14T01:58:38.434Z,653.00
2024-02-14T01:59:38.494Z,648.00
2024-02-14T02:00:38.529Z,646.00
2024-02-14T02:01:38.476Z,646.00
2024-02-14T02:02:38.557Z,643.00
2024-02-14T02:03:38.544Z,644.00
2024-02-14T02:04:38.622Z,643.00
2024-02-14T02:05:38.711Z,643.00
2024-02-14T02:06:39.040Z,642.00
2024-02-14T02:07:38.653Z,641.00
2024-02-14T02:08:38.746Z,642.00
2024-02-14T02:09:38.675Z,642.00
2024-02-14T02:10:38.733Z,644.00
2024-02-14T02:11:38.770Z,645.00
2024-02-14T02:12:38.728Z,645.00
2024-02-14T02:13:38.716Z,648.00
2024-02-14T02:14:38.793Z,646.00
2024-02-14T02:15:38.739Z,648.00
2024-02-14T02:16:38.762Z,649.00
2024-02-14T02:17:38.865Z,649.00
2024-02-14T02:18:38.910Z,648.00
2024-02-14T02:19:38.808Z,650.00
2024-02-14T02:20:38.887Z,650.00
2024-02-14T02:21:38.880Z,649.00
2024-02-14T02:22:38.862Z,651.00
2024-02-14T02:23:38.908Z,654.00
2024-02-14T02:24:38.889Z,653.00
2024-02-14T02:25:38.963Z,652.00
2024-02-14T02:26:39.032Z,650.00
2024-02-14T02:27:39.082Z,651.00
2024-02-14T02:28:39.040Z,654.00
2024-02-14T02:29:39.158Z,652.00
2024-02-14T02:30:39.189Z,648.00
2024-02-14T02:31:39.135Z,649.00
2024-02-14T02:32:39.395Z,648.00
2024-02-14T02:33:39.463Z,648.00
2024-02-14T02:34:39.266Z,650.00
2024-02-14T02:35:39.167Z,650.00
2024-02-14T02:36:39.247Z,653.00
2024-02-14T02:37:39.266Z,655.00
2024-02-14T02:38:39.330Z,653.00
2024-02-14T02:39:39.290Z,652.00
2024-02-14T02:40:39.332Z,654.00
2024-02-14T02:41:39.419Z,653.00
2024-02-14T02:42:39.371Z,653.00
2024-02-14T02:43:39.376Z,654.00
2024-02-14T02:44:39.402Z,654.00
2024-02-14T02:45:39.455Z,654.00
2024-02-14T02:46:39.428Z,655.00
2024-02-14T02:47:39.621Z,654.00
2024-02-14T02:48:39.642Z,656.00
2024-02-14T02:49:39.570Z,652.00
2024-02-14T02:50:39.531Z,652.00
2024-02-14T02:51:39.575Z,651.00
2024-02-14T02:52:39.577Z,653.00
2024-02-14T02:53:39.612Z,650.00
2024-02-14T02:54:39.595Z,650.00
2024-02-14T02:55:39.605Z,650.00
2024-02-14T02:56:39.676Z,652.00
2024-02-14T02:57:39.670Z,649.00
2024-02-14T02:58:39.662Z,648.00
2024-02-14T02:59:39.731Z,649.00
2024-02-14T03:00:39.692Z,648.00
2024-02-14T03:01:39.735Z,645.00
2024-02-14T03:02:39.867Z,648.00
2024-02-14T03:03:39.878Z,648.00
2024-02-14T03:04:48.796Z,651.00
2024-02-14T03:05:40.829Z,653.00
2024-02-14T03:06:39.851Z,653.00
2024-02-14T03:07:39.799Z,652.00
2024-02-14T03:08:39.864Z,655.00
2024-02-14T03:09:39.795Z,654.00
2024-02-14T03:10:39.811Z,655.00
2024-02-14T03:11:39.883Z,655.00
2024-02-14T03:12:39.894Z,652.00
2024-02-14T03:13:39.812Z,651.00
2024-02-14T03:14:39.799Z,650.00
2024-02-14T03:15:39.837Z,646.00
2024-02-14T03:16:39.844Z,644.00
2024-02-14T03:17:39.897Z,644.00
2024-02-14T03:18:39.957Z,644.00
2024-02-14T03:19:39.929Z,644.00
2024-02-14T03:20:39.922Z,646.00
2024-02-14T03:21:39.952Z,646.00
2024-02-14T03:22:39.953Z,648.00
2024-02-14T03:23:40.046Z,648.00
2024-02-14T03:24:40.036Z,648.00
2024-02-14T03:25:40.039Z,648.00
2024-02-14T03:26:40.112Z,645.00
2024-02-14T03:27:40.101Z,646.00
2024-02-14T03:28:40.196Z,646.00
2024-02-14T03:29:40.356Z,646.00
2024-02-14T03:30:40.255Z,646.00
2024-02-14T03:31:40.300Z,649.00
2024-02-14T03:32:40.417Z,650.00
2024-02-14T03:33:40.533Z,647.00
2024-02-14T03:34:40.408Z,646.00
2024-02-14T03:35:40.387Z,650.00
2024-02-14T03:36:40.450Z,651.00
2024-02-14T03:37:40.518Z,651.00
2024-02-14T03:38:40.521Z,651.00
2024-02-14T03:39:40.546Z,649.00
2024-02-14T03:40:40.564Z,648.00
2024-02-14T03:41:40.675Z,646.00
2024-02-14T03:42:40.635Z,644.00
2024-02-14T03:43:40.687Z,643.00
2024-02-14T03:44:40.723Z,642.00
2024-02-14T03:45:40.691Z,642.00
2024-02-14T03:46:40.740Z,644.00
2024-02-14T03:47:41.356Z,643.00
2024-02-14T03:48:40.880Z,642.00
2024-02-14T03:49:40.864Z,641.00
2024-02-14T03:50:40.890Z,641.00
2024-02-14T03:51:40.899Z,638.00
2024-02-14T03:52:40.903Z,638.00
2024-02-14T03:53:40.997Z,635.00
2024-02-14T03:54:41.030Z,634.00
2024-02-14T03:55:41.029Z,635.00
2024-02-14T03:56:41.072Z,634.00
2024-02-14T03:57:41.036Z,638.00
2024-02-14T03:58:41.077Z,638.00
2024-02-14T03:59:41.230Z,635.00
2024-02-14T04:00:41.199Z,638.00
2024-02-14T04:01:41.217Z,637.00
2024-02-14T04:02:41.576Z,632.00
2024-02-14T04:03:41.315Z,630.00
2024-02-14T04:04:41.356Z,629.00
2024-02-14T04:05:41.489Z,631.00
2024-02-14T04:06:41.538Z,631.00
2024-02-14T04:07:41.574Z,629.00
2024-02-14T04:08:41.643Z,633.00
2024-02-14T04:09:41.645Z,633.00
2024-02-14T04:10:41.751Z,632.00
2024-02-14T04:11:41.807Z,636.00
2024-02-14T04:12:41.857Z,637.00
2024-02-14T04:13:41.937Z,640.00
2024-02-14T04:14:42.063Z,640.00
2024-02-14T04:15:42.034Z,640.00
2024-02-14T04:16:42.097Z,642.00
2024-02-14T04:17:42.303Z,639.00
2024-02-14T04:18:42.366Z,638.00
2024-02-14T04:19:42.337Z,639.00
2024-02-14T04:20:42.435Z,640.00
2024-02-14T04:21:42.634Z,640.00
2024-02-14T04:22:42.475Z,641.00
2024-02-14T04:23:42.513Z,644.00
2024-02-14T04:24:42.575Z,646.00
2024-02-14T04:25:42.611Z,645.00
2024-02-14T04:26:42.717Z,645.00
2024-02-14T04:27:42.730Z,646.00
2024-02-14T04:28:42.823Z,648.00
2024-02-14T04:29:42.923Z,644.00
2024-02-14T04:30:43.039Z,644.00
2024-02-14T04:31:42.924Z,643.00
2024-02-14T04:32:43.141Z,643.00
2024-02-14T04:33:43.148Z,644.00
2024-02-14T04:34:43.294Z,643.00
2024-02-14T04:35:43.133Z,643.00
2024-02-14T04:36:43.177Z,644.00
2024-02-14T04:37:43.215Z,647.00
2024-02-14T04:38:43.326Z,650.00
2024-02-14T04:39:43.402Z,653.00
2024-02-14T04:40:43.380Z,653.00
2024-02-14T04:41:52.932Z,654.00
2024-02-14T04:42:44.436Z,654.00
2024-02-14T04:43:43.422Z,652.00
2024-02-14T04:44:43.440Z,650.00
2024-02-14T04:45:43.430Z,651.00
2024-02-14T04:46:43.429Z,651.00
2024-02-14T04:47:50.867Z,653.00
2024-02-14T04:48:50.899Z,644.00
2024-02-14T04:49:50.862Z,641.00
2024-02-14T04:50:50.775Z,644.00
2024-02-14T04:51:50.781Z,644.00
2024-02-14T04:52:50.797Z,644.00
2024-02-14T04:53:50.839Z,643.00
2024-02-14T04:54:50.751Z,642.00
2024-02-14T04:55:50.762Z,642.00
2024-02-14T04:56:55.223Z,647.00
2024-02-14T04:57:51.813Z,649.00
2024-02-14T04:58:50.787Z,649.00
2024-02-14T04:59:50.814Z,651.00
2024-02-14T05:00:50.848Z,650.00
2024-02-14T05:01:50.815Z,650.00
2024-02-14T05:02:50.891Z,653.00
2024-02-14T05:03:50.889Z,651.00
2024-02-14T05:04:50.806Z,650.00
2024-02-14T05:05:50.827Z,649.00
2024-02-14T05:06:52.291Z,648.00
2024-02-14T05:07:50.794Z,651.00
2024-02-14T05:08:50.861Z,655.00
2024-02-14T05:09:50.840Z,655.00
2024-02-14T05:10:50.811Z,653.00
2024-02-14T05:11:50.853Z,654.00
2024-02-14T05:12:50.797Z,656.00
2024-02-14T05:13:50.833Z,655.00
2024-02-14T05:14:50.860Z,658.00
2024-02-14T05:15:50.827Z,660.00
2024-02-14T05:16:51.186Z,659.00
2024-02-14T05:17:50.881Z,658.00
2024-02-14T05:18:50.930Z,658.00
2024-02-14T05:19:50.851Z,657.00
2024-02-14T05:20:50.888Z,658.00
2024-02-14T05:21:50.838Z,657.00
2024-02-14T05:22:50.854Z,659.00
2024-02-14T05:23:50.850Z,657.00
2024-02-14T05:24:50.830Z,653.00
2024-02-14T05:25:50.814Z,653.00
2024-02-14T05:26:50.879Z,653.00
2024-02-14T05:27:50.820Z,654.00
2024-02-14T05:28:50.816Z,654.00
2024-02-14T05:29:50.898Z,654.00
2024-02-14T05:30:50.855Z,656.00
2024-02-14T05:31:50.906Z,655.00
2024-02-14T05:32:50.885Z,655.00
2024-02-14T05:33:51.248Z,655.00
2024-02-14T05:34:50.848Z,656.00
2024-02-14T05:35:50.842Z,657.00
2024-02-14T05:36:50.854Z,659.00
2024-02-14T05:37:50.873Z,661.00
2024-02-14T05:38:50.860Z,663.00
2024-02-14T05:39:50.871Z,662.00
2024-02-14T05:40:50.870Z,661.00
2024-02-14T05:41:50.972Z,660.00
2024-02-14T05:42:50.889Z,661.00
2024-02-14T05:43:50.900Z,661.00
2024-02-14T05:44:50.913Z,660.00
2024-02-14T05:45:50.905Z,661.00
2024-02-14T05:46:50.840Z,664.00
2024-02-14T05:47:51.022Z,661.00
2024-02-14T05:48:51.023Z,659.00
2024-02-14T05:49:50.934Z,658.00
2024-02-14T05:50:51.058Z,659.00
2024-02-14T05:51:50.896Z,659.00
2024-02-14T05:52:50.980Z,656.00
2024-02-14T05:53:51.042Z,655.00
2024-02-14T05:54:51.062Z,655.00
2024-02-14T05:55:51.134Z,654.00
2024-02-14T05:56:51.261Z,650.00
2024-02-14T05:57:51.205Z,650.00
2024-02-14T05:58:51.295Z,650.00
2024-02-14T05:59:51.320Z,651.00
2024-02-14T06:01:13.905Z,652.00
2024-02-14T06:01:51.334Z,653.00
2024-02-14T06:02:51.383Z,650.00
2024-02-14T06:03:51.417Z,649.00
2024-02-14T06:04:51.445Z,650.00
2024-02-14T06:05:51.442Z,652.00
2024-02-14T06:06:51.414Z,651.00
2024-02-14T06:07:51.406Z,650.00
2024-02-14T06:08:51.408Z,649.00
2024-02-14T06:09:51.346Z,647.00
2024-02-14T06:10:51.359Z,647.00
2024-02-14T06:11:51.401Z,647.00
2024-02-14T06:12:51.372Z,649.00
2024-02-14T06:13:51.375Z,649.00
2024-02-14T06:14:51.441Z,650.00
2024-02-14T06:15:51.391Z,652.00
2024-02-14T06:16:51.411Z,653.00
2024-02-14T06:17:51.751Z,655.00
2024-02-14T06:18:51.583Z,657.00
2024-02-14T06:19:51.557Z,657.00
2024-02-14T06:20:51.636Z,659.00
2024-02-14T06:21:51.597Z,656.00
2024-02-14T06:22:57.490Z,655.00
2024-02-14T06:23:52.711Z,655.00
2024-02-14T06:24:51.668Z,653.00
2024-02-14T06:25:51.685Z,655.00
2024-02-14T06:26:51.719Z,654.00
2024-02-14T06:27:51.683Z,655.00
2024-02-14T06:28:51.705Z,654.00
2024-02-14T06:29:51.733Z,655.00
2024-02-14T06:30:51.704Z,654.00
2024-02-14T06:31:51.674Z,654.00
2024-02-14T06:32:51.857Z,654.00
2024-02-14T06:33:51.921Z,653.00
2024-02-14T06:34:52.024Z,654.00
2024-02-14T06:35:51.930Z,656.00
2024-02-14T06:36:52.458Z,657.00
2024-02-14T06:37:56.134Z,658.00
2024-02-14T06:38:52.904Z,658.00
2024-02-14T06:39:51.874Z,658.00
2024-02-14T06:40:51.916Z,657.00
2024-02-14T06:41:51.930Z,658.00
2024-02-14T06:42:51.922Z,659.00
2024-02-14T06:43:51.867Z,656.00
2024-02-14T06:44:51.976Z,659.00
2024-02-14T06:46:15.885Z,660.00
2024-02-14T06:46:51.913Z,660.00
2024-02-14T06:47:52.094Z,655.00
2024-02-14T06:48:52.097Z,652.00
2024-02-14T06:49:51.993Z,648.00
2024-02-14T06:50:51.931Z,650.00
2024-02-14T06:51:51.881Z,651.00
2024-02-14T06:52:51.892Z,651.00
2024-02-14T06:53:51.973Z,650.00
2024-02-14T06:54:52.067Z,652.00
2024-02-14T06:55:51.987Z,650.00
2024-02-14T06:56:51.952Z,651.00
2024-02-14T06:57:51.940Z,650.00
2024-02-14T06:58:51.936Z,648.00
2024-02-14T06:59:51.938Z,648.00
2024-02-14T07:00:51.958Z,648.00
2024-02-14T07:01:52.560Z,650.00
2024-02-14T07:02:51.995Z,651.00
2024-02-14T07:03:52.018Z,651.00
2024-02-14T07:04:51.937Z,653.00
2024-02-14T07:05:52.066Z,652.00
2024-02-14T07:06:52.006Z,651.00
2024-02-14T07:07:51.952Z,652.00
2024-02-14T07:08:52.027Z,652.00
2024-02-14T07:09:51.948Z,651.00
2024-02-14T07:10:51.949Z,653.00
2024-02-14T07:11:52.045Z,650.00
2024-02-14T07:12:51.917Z,651.00
2024-02-14T07:13:51.949Z,651.00
2024-02-14T07:14:52.007Z,650.00
2024-02-14T07:15:51.939Z,650.00
2024-02-14T07:16:51.961Z,651.00
2024-02-14T07:17:52.081Z,650.00
2024-02-14T07:18:52.112Z,650.00
2024-02-14T07:19:52.084Z,650.00
2024-02-14T07:20:52.087Z,649.00
2024-02-14T07:21:51.950Z,649.00
2024-02-14T07:22:51.934Z,649.00
2024-02-14T07:23:51.987Z,649.00
2024-02-14T07:24:51.972Z,649.00
2024-02-14T07:25:51.985Z,649.00
2024-02-14T07:26:52.073Z,648.00
2024-02-14T07:27:52.102Z,648.00
2024-02-14T07:28:52.130Z,651.00
2024-02-14T07:29:52.395Z,654.00
2024-02-14T07:30:52.237Z,655.00
2024-02-14T07:31:52.263Z,654.00
2024-02-14T07:32:52.504Z,658.00
2024-02-14T07:33:52.455Z,660.00
2024-02-14T07:34:52.423Z,659.00
2024-02-14T07:35:52.489Z,658.00
2024-02-14T07:36:52.493Z,657.00
2024-02-14T07:37:52.521Z,654.00
2024-02-14T07:38:52.738Z,655.00
2024-02-14T07:39:52.650Z,654.00
2024-02-14T07:40:52.706Z,657.00
2024-02-14T07:41:52.772Z,659.00
2024-02-14T07:42:52.829Z,662.00
2024-02-14T07:43:52.875Z,661.00
2024-02-14T07:44:52.913Z,662.00
2024-02-14T07:45:52.944Z,663.00
2024-02-14T07:46:52.993Z,663.00
2024-02-14T07:47:53.249Z,664.00
2024-02-14T07:48:53.193Z,663.00
2024-02-14T07:49:53.194Z,662.00
2024-02-14T07:50:53.199Z,660.00
2024-02-14T07:51:53.205Z,658.00
2024-02-14T07:52:53.308Z,657.00
2024-02-14T07:53:53.449Z,654.00
2024-02-14T07:54:53.409Z,656.00
2024-02-14T07:55:53.425Z,659.00
2024-02-14T07:56:53.476Z,658.00
2024-02-14T07:57:53.460Z,656.00
2024-02-14T07:58:53.478Z,653.00
2024-02-14T07:59:53.526Z,653.00
2024-02-14T08:00:53.581Z,653.00
2024-02-14T08:01:53.600Z,655.00
2024-02-14T08:02:53.739Z,658.00
2024-02-14T08:03:53.738Z,658.00
2024-02-14T08:04:53.799Z,658.00
2024-02-14T08:05:53.825Z,658.00
2024-02-14T08:06:53.890Z,658.00
2024-02-14T08:07:53.854Z,657.00
2024-02-14T08:08:53.980Z,656.00
2024-02-14T08:09:54.052Z,659.00
2024-02-14T08:10:54.072Z,659.00
2024-02-14T08:11:54.197Z,659.00
2024-02-14T08:12:54.215Z,661.00
2024-02-14T08:13:54.293Z,662.00
2024-02-14T08:14:54.320Z,664.00
2024-02-14T08:15:54.381Z,664.00
2024-02-14T08:16:54.374Z,664.00
2024-02-14T08:17:56.602Z,662.00
2024-02-14T08:18:54.713Z,659.00
2024-02-14T08:19:54.702Z,660.00
2024-02-14T08:20:54.683Z,655.00
2024-02-14T08:21:54.657Z,655.00
2024-02-14T08:22:54.746Z,656.00
2024-02-14T08:23:54.827Z,657.00
2024-02-14T08:24:54.849Z,655.00
2024-02-14T08:25:54.905Z,655.00
2024-02-14T08:26:55.023Z,655.00
2024-02-14T08:27:55.010Z,658.00
2024-02-14T08:28:55.098Z,660.00
2024-02-14T08:29:55.351Z,663.00
2024-02-14T08:30:55.139Z,660.00
2024-02-14T08:31:55.262Z,660.00
2024-02-14T08:32:55.440Z,661.00
2024-02-14T08:33:55.660Z,662.00
2024-02-14T08:34:55.494Z,661.00
2024-02-14T08:35:55.459Z,662.00
2024-02-14T08:36:55.490Z,662.00
2024-02-14T08:37:57.286Z,659.00
2024-02-14T08:38:55.618Z,656.00
2024-02-14T08:39:55.581Z,654.00
2024-02-14T08:40:55.516Z,654.00
2024-02-14T08:41:55.586Z,658.00
2024-02-14T08:42:55.551Z,660.00
2024-02-14T08:43:55.533Z,660.00
2024-02-14T08:44:55.554Z,660.00
2024-02-14T08:45:55.558Z,659.00
2024-02-14T08:46:55.687Z,659.00
2024-02-14T08:47:55.713Z,658.00
2024-02-14T08:48:55.682Z,657.00
2024-02-14T08:49:55.568Z,657.00
2024-02-14T08:50:55.648Z,655.00
2024-02-14T08:51:55.607Z,658.00
2024-02-14T08:52:55.564Z,660.00
2024-02-14T08:53:55.627Z,659.00
2024-02-14T08:54:55.608Z,659.00
2024-02-14T08:55:56.101Z,660.00
2024-02-14T08:56:55.667Z,661.00
2024-02-14T08:57:55.599Z,660.00
2024-02-14T08:58:56.128Z,664.00
2024-02-14T08:59:56.064Z,666.00
2024-02-14T09:01:04.730Z,667.00
2024-02-14T09:01:56.624Z,667.00
2024-02-14T09:02:55.573Z,663.00
2024-02-14T09:03:55.584Z,665.00
2024-02-14T09:04:55.791Z,665.00
2024-02-14T09:05:55.881Z,662.00
2024-02-14T09:06:55.668Z,665.00
2024-02-14T09:07:55.607Z,667.00
2024-02-14T09:08:55.667Z,666.00
2024-02-14T09:09:55.576Z,667.00
2024-02-14T09:10:55.573Z,666.00
2024-02-14T09:11:55.650Z,664.00
2024-02-14T09:12:55.626Z,664.00
2024-02-14T09:13:56.568Z,664.00
2024-02-14T09:14:55.787Z,665.00
2024-02-14T09:15:55.945Z,664.00
2024-02-14T09:16:55.844Z,663.00
2024-02-14T09:17:55.901Z,661.00
2024-02-14T09:18:56.002Z,662.00
2024-02-14T09:19:56.068Z,664.00
2024-02-14T09:20:56.155Z,659.00
2024-02-14T09:21:56.106Z,656.00
2024-02-14T09:22:56.182Z,655.00
2024-02-14T09:23:56.246Z,656.00
2024-02-14T09:24:56.295Z,658.00
2024-02-14T09:25:56.301Z,659.00
2024-02-14T09:26:56.512Z,662.00
2024-02-14T09:27:56.416Z,662.00
2024-02-14T09:28:56.470Z,661.00
2024-02-14T09:29:56.617Z,660.00
2024-02-14T09:30:56.578Z,659.00
2024-02-14T09:31:56.595Z,657.00
2024-02-14T09:32:56.876Z,654.00
2024-02-14T09:33:56.916Z,653.00
2024-02-14T09:34:56.870Z,654.00
2024-02-14T09:35:56.824Z,654.00
2024-02-14T09:36:56.898Z,652.00
2024-02-14T09:37:56.940Z,655.00
2024-02-14T09:38:59.276Z,656.00
2024-02-14T09:39:57.013Z,656.00
2024-02-14T09:40:56.934Z,655.00
2024-02-14T09:41:57.021Z,654.00
2024-02-14T09:42:57.039Z,651.00
2024-02-14T09:43:56.962Z,651.00
2024-02-14T09:44:57.014Z,649.00
2024-02-14T09:45:57.001Z,649.00
2024-02-14T09:46:57.052Z,650.00
2024-02-14T09:47:57.073Z,653.00
2024-02-14T09:48:57.275Z,653.00
2024-02-14T09:49:57.038Z,653.00
2024-02-14T09:50:56.997Z,654.00
2024-02-14T09:51:56.965Z,655.00
2024-02-14T09:52:57.001Z,657.00
2024-02-14T09:53:57.224Z,656.00
2024-02-14T09:54:57.016Z,654.00
2024-02-14T09:55:57.089Z,651.00
2024-02-14T09:56:57.069Z,650.00
2024-02-14T09:57:57.081Z,649.00
2024-02-14T09:58:57.133Z,648.00
2024-02-14T09:59:57.053Z,646.00
2024-02-14T10:00:57.029Z,647.00
2024-02-14T10:01:57.005Z,650.00
2024-02-14T10:02:57.024Z,649.00
2024-02-14T10:03:57.013Z,652.00
2024-02-14T10:04:57.112Z,656.00
2024-02-14T10:05:57.070Z,658.00
2024-02-14T10:06:57.077Z,657.00
2024-02-14T10:07:57.037Z,656.00
2024-02-14T10:09:03.147Z,657.00
2024-02-14T10:09:57.969Z,657.00
2024-02-14T10:10:58.245Z,656.00
2024-02-14T10:11:57.041Z,657.00
2024-02-14T10:12:57.035Z,657.00
2024-02-14T10:13:57.034Z,655.00
2024-02-14T10:14:57.091Z,652.00
2024-02-14T10:15:57.051Z,653.00
2024-02-14T10:16:57.057Z,654.00
2024-02-14T10:17:57.016Z,654.00
2024-02-14T10:18:57.145Z,652.00
2024-02-14T10:19:57.119Z,653.00
2024-02-14T10:20:57.198Z,653.00
2024-02-14T10:21:57.032Z,655.00
2024-02-14T10:22:57.023Z,655.00
2024-02-14T10:23:57.194Z,653.00
2024-02-14T10:24:58.085Z,652.00
2024-02-14T10:25:57.341Z,653.00
2024-02-14T10:26:57.274Z,651.00
2024-02-14T10:27:57.233Z,650.00
2024-02-14T10:28:57.354Z,651.00
2024-02-14T10:29:57.424Z,651.00
2024-02-14T10:30:57.400Z,651.00
2024-02-14T10:31:57.443Z,648.00
2024-02-14T10:32:59.393Z,649.00
2024-02-14T10:33:58.780Z,649.00
2024-02-14T10:34:57.595Z,651.00
2024-02-14T10:36:00.169Z,653.00
2024-02-14T10:36:57.500Z,656.00
2024-02-14T10:37:57.503Z,655.00
2024-02-14T10:38:57.561Z,651.00
2024-02-14T10:39:57.525Z,649.00
2024-02-14T10:40:57.524Z,648.00
2024-02-14T10:41:57.580Z,649.00
2024-02-14T10:42:57.492Z,648.00
2024-02-14T10:43:57.539Z,649.00
2024-02-14T10:44:58.118Z,649.00
2024-02-14T10:45:57.573Z,648.00
2024-02-14T10:46:57.564Z,650.00
2024-02-14T10:47:57.599Z,651.00
2024-02-14T10:48:57.650Z,651.00
2024-02-14T10:49:57.577Z,649.00
2024-02-14T10:50:57.586Z,649.00
2024-02-14T10:51:57.563Z,649.00
2024-02-14T10:52:57.640Z,652.00
2024-02-14T10:53:57.664Z,653.00
2024-02-14T10:54:57.605Z,653.00
2024-02-14T10:55:57.751Z,653.00
2024-02-14T10:56:57.817Z,653.00
2024-02-14T10:57:57.734Z,652.00
2024-02-14T10:58:57.812Z,653.00
2024-02-14T10:59:57.866Z,652.00
2024-02-14T11:00:57.848Z,652.00
2024-02-14T11:01:57.930Z,650.00
2024-02-14T11:02:57.952Z,649.00
2024-02-14T11:03:57.999Z,648.00
2024-02-14T11:04:58.012Z,648.00
2024-02-14T11:05:58.101Z,647.00
2024-02-14T11:06:58.154Z,647.00
2024-02-14T11:07:58.122Z,648.00
2024-02-14T11:08:58.191Z,648.00
2024-02-14T11:09:58.257Z,647.00
2024-02-14T11:10:58.270Z,644.00
2024-02-14T11:11:58.293Z,644.00
2024-02-14T11:12:58.297Z,646.00
2024-02-14T11:13:58.356Z,645.00
2024-02-14T11:14:59.976Z,643.00
2024-02-14T11:15:58.389Z,642.00
2024-02-14T11:16:58.380Z,645.00
2024-02-14T11:17:58.619Z,644.00
2024-02-14T11:18:58.604Z,645.00
2024-02-14T11:19:58.569Z,644.00
2024-02-14T11:20:58.506Z,641.00
2024-02-14T11:21:58.428Z,643.00
2024-02-14T11:22:58.384Z,646.00
2024-02-14T11:23:58.453Z,648.00
2024-02-14T11:24:58.367Z,645.00
2024-02-14T11:25:58.413Z,643.00
2024-02-14T11:26:58.407Z,644.00
2024-02-14T11:27:58.408Z,644.00
2024-02-14T11:28:58.397Z,646.00
2024-02-14T11:29:58.443Z,646.00
2024-02-14T11:30:58.410Z,647.00
2024-02-14T11:31:58.441Z,646.00
2024-02-14T11:32:58.478Z,645.00
2024-02-14T11:33:58.548Z,643.00
2024-02-14T11:34:58.466Z,644.00
2024-02-14T11:35:58.465Z,646.00
2024-02-14T11:36:58.378Z,645.00
2024-02-14T11:37:58.421Z,644.00
2024-02-14T11:38:58.455Z,644.00
2024-02-14T11:39:58.393Z,647.00
2024-02-14T11:40:58.598Z,649.00
2024-02-14T11:41:58.569Z,647.00
2024-02-14T11:42:58.477Z,645.00
2024-02-14T11:43:58.418Z,646.00
2024-02-14T11:44:58.535Z,647.00
2024-02-14T11:45:58.423Z,652.00
2024-02-14T11:46:58.444Z,651.00
2024-02-14T11:47:58.548Z,649.00
2024-02-14T11:48:58.632Z,647.00
2024-02-14T11:49:58.585Z,647.00
2024-02-14T11:50:58.475Z,648.00
2024-02-14T11:51:58.441Z,651.00
2024-02-14T11:52:58.438Z,650.00
2024-02-14T11:53:58.428Z,648.00
2024-02-14T11:54:58.463Z,646.00
2024-02-14T11:55:58.444Z,646.00
2024-02-14T11:56:58.485Z,645.00
2024-02-14T11:57:58.460Z,643.00
2024-02-14T11:58:58.504Z,643.00
2024-02-14T11:59:58.511Z,641.00
2024-02-14T12:00:58.507Z,642.00
2024-02-14T12:01:58.479Z,643.00
2024-02-14T12:02:58.463Z,644.00
2024-02-14T12:03:58.431Z,641.00
2024-02-14T12:04:58.464Z,643.00
2024-02-14T12:05:58.594Z,643.00
2024-02-14T12:06:58.692Z,644.00
2024-02-14T12:07:58.478Z,644.00
2024-02-14T12:08:58.500Z,645.00
2024-02-14T12:09:58.453Z,644.00
2024-02-14T12:10:58.509Z,646.00
2024-02-14T12:11:58.590Z,644.00
2024-02-14T12:12:58.541Z,645.00
2024-02-14T12:13:58.537Z,646.00
2024-02-14T12:14:58.597Z,644.00
2024-02-14T12:15:58.630Z,645.00
2024-02-14T12:16:58.695Z,646.00
2024-02-14T12:17:58.888Z,645.00
2024-02-14T12:18:58.855Z,642.00
2024-02-14T12:19:58.894Z,641.00
2024-02-14T12:20:58.880Z,642.00
2024-02-14T12:21:58.879Z,641.00
2024-02-14T12:22:59.079Z,642.00
2024-02-14T12:23:58.998Z,642.00
2024-02-14T12:24:59.070Z,646.00
2024-02-14T12:25:59.057Z,646.00
2024-02-14T12:26:59.124Z,645.00
2024-02-14T12:27:59.178Z,644.00
2024-02-14T12:28:59.178Z,641.00